Time;durP1;ratioP1;P1;durP2;ratioP2;P2;SDS_P1;SDS_P2;PMS_P1;PMS_P2;Temp;Humidity;BMP_temperature;BMP_pressure;BME280_temperature;BME280_humidity;BME280_pressure;Samples;Min_cycle;Max_cycle;Signal;HPM_P1;HPM_P2
2023/09/04 00:00:38;;;;;;;21.17;10.43;;;24.40;93.50;;;;;;5030256;28;20056;-68
2023/09/04 00:03:42;;;;;;;22.25;10.07;;;24.30;93.50;;;;;;5030489;28;20503;-68
2023/09/04 00:06:47;;;;;;;22.60;10.35;;;24.30;93.20;;;;;;5032927;28;20053;-67
2023/09/04 00:09:51;;;;;;;23.58;10.88;;;24.30;93.40;;;;;;5034008;28;20048;-69
2023/09/04 00:12:55;;;;;;;22.58;11.07;;;25.00;93.40;;;;;;5033869;28;20048;-69
2023/09/04 00:15:58;;;;;;;25.77;12.52;;;24.20;93.40;;;;;;5034045;28;20044;-69
2023/09/04 00:19:02;;;;;;;20.05;11.40;;;24.00;93.70;;;;;;5032749;28;20048;-68
2023/09/04 00:22:06;;;;;;;25.30;12.65;;;23.90;94.10;;;;;;5033956;28;20040;-68
2023/09/04 00:25:10;;;;;;;26.65;11.88;;;23.90;94.00;;;;;;5032985;28;20056;-70
2023/09/04 00:28:18;;;;;;;20.88;11.68;;;23.90;94.30;;;;;;5033942;28;20049;-67
2023/09/04 00:31:22;;;;;;;20.00;11.68;;;23.90;94.40;;;;;;5032931;28;20052;-69
2023/09/04 00:34:26;;;;;;;31.40;12.35;;;23.80;94.50;;;;;;5021353;28;20057;-67
2023/09/04 00:37:30;;;;;;;18.67;12.23;;;23.80;94.40;;;;;;5033759;28;20555;-69
2023/09/04 00:40:34;;;;;;;23.63;12.75;;;24.10;94.60;;;;;;5055783;28;20108;-69
2023/09/04 00:43:38;;;;;;;25.77;12.38;;;21.60;93.90;;;;;;5033525;28;20040;-68
2023/09/04 00:46:43;;;;;;;28.25;13.13;;;23.70;94.20;;;;;;5033208;28;20052;-68
2023/09/04 00:49:47;;;;;;;27.45;11.50;;;23.60;94.40;;;;;;5032310;28;20040;-68
2023/09/04 00:52:56;;;;;;;25.27;12.73;;;23.60;94.90;;;;;;5033427;28;20528;-69
2023/09/04 00:56:02;;;;;;;20.75;12.90;;;23.60;94.30;;;;;;5033147;28;20044;-69
2023/09/04 00:59:06;;;;;;;26.45;12.25;;;23.70;94.50;;;;;;5033405;28;20035;-68
2023/09/04 01:02:13;;;;;;;22.75;12.35;;;23.60;94.50;;;;;;5032484;28;20073;-69
2023/09/04 01:05:17;;;;;;;19.95;11.63;;;23.80;94.80;;;;;;5032902;28;20508;-70
2023/09/04 01:08:21;;;;;;;18.85;11.23;;;23.50;94.50;;;;;;5033264;28;20056;-69
2023/09/04 01:11:53;;;;;;;20.50;10.98;;;23.50;94.80;;;;;;5033053;28;20044;-69
2023/09/04 01:14:58;;;;;;;21.42;11.80;;;23.70;94.70;;;;;;5055328;28;20048;-69
2023/09/04 01:18:07;;;;;;;21.92;12.40;;;23.60;94.20;;;;;;5031387;28;20121;-68
2023/09/04 01:21:11;;;;;;;20.98;11.52;;;23.50;94.20;;;;;;5032606;28;20052;-69
2023/09/04 01:24:17;;;;;;;21.80;11.82;;;23.40;94.40;;;;;;5031766;28;20044;-69
2023/09/04 01:27:32;;;;;;;18.13;10.63;;;23.30;94.60;;;;;;5032406;28;20068;-68
2023/09/04 01:31:21;;;;;;;22.25;12.00;;;23.40;94.80;;;;;;5031607;28;20065;-70
2023/09/04 01:34:29;;;;;;;23.48;12.13;;;23.50;94.40;;;;;;4993250;28;20053;-68
2023/09/04 01:37:34;;;;;;;21.63;11.63;;;23.50;94.10;;;;;;4993299;28;20045;-68
2023/09/04 01:40:39;;;;;;;24.45;11.23;;;;;;;;;;4992685;28;20041;-67
2023/09/04 01:43:43;;;;;;;20.92;11.38;;;23.60;94.20;;;;;;4992209;28;20398;-68
2023/09/04 01:46:49;;;;;;;18.63;11.07;;;24.20;94.50;;;;;;4992759;28;20154;-70
2023/09/04 01:49:53;;;;;;;21.35;11.23;;;23.60;93.90;;;;;;4992944;28;20574;-68
2023/09/04 01:52:57;;;;;;;20.70;11.38;;;23.60;94.00;;;;;;4992227;28;20045;-69
2023/09/04 01:56:01;;;;;;;22.65;11.30;;;23.50;93.70;;;;;;4992956;28;20043;-69
2023/09/04 01:59:05;;;;;;;24.10;11.30;;;23.30;93.80;;;;;;4991836;28;20401;-69
2023/09/04 02:02:09;;;;;;;19.25;10.85;;;23.30;94.00;;;;;;4991880;28;20533;-68
2023/09/04 02:05:13;;;;;;;19.40;10.70;;;23.40;93.90;;;;;;4992747;28;20053;-69
2023/09/04 02:08:19;;;;;;;21.60;10.75;;;23.30;93.20;;;;;;4992717;28;20045;-69
2023/09/04 02:11:24;;;;;;;16.55;9.63;;;23.30;93.40;;;;;;4992510;28;20049;-69
2023/09/04 02:14:28;;;;;;;15.90;9.27;;;23.40;93.30;;;;;;4991744;28;20046;-69
2023/09/04 02:17:32;;;;;;;19.08;9.02;;;23.30;93.40;;;;;;4992580;28;20501;-69
2023/09/04 02:20:36;;;;;;;18.08;9.23;;;23.50;93.20;;;;;;4992436;28;20049;-69
2023/09/04 02:23:43;;;;;;;20.02;8.52;;;23.50;92.90;;;;;;4992277;28;20045;-69
2023/09/04 02:26:47;;;;;;;17.35;8.57;;;23.50;92.80;;;;;;4991938;28;20058;-69
2023/09/04 02:29:51;;;;;;;15.13;8.77;;;23.60;92.70;;;;;;4990391;28;20041;-68
2023/09/04 02:32:59;;;;;;;17.63;8.18;;;23.70;92.60;;;;;;5008492;28;20528;-68
2023/09/04 02:36:05;;;;;;;15.10;7.63;;;23.70;91.90;;;;;;5031593;28;20047;-68
2023/09/04 02:39:09;;;;;;;15.88;8.85;;;23.60;92.10;;;;;;5031187;28;20279;-68
2023/09/04 02:42:13;;;;;;;15.73;8.30;;;23.50;91.90;;;;;;5030662;28;20044;-68
2023/09/04 02:45:17;;;;;;;17.60;8.13;;;23.50;92.30;;;;;;5031235;28;20040;-68
2023/09/04 02:48:21;;;;;;;14.05;7.53;;;23.50;92.00;;;;;;5030271;28;20056;-69
2023/09/04 02:51:25;;;;;;;14.02;6.57;;;23.50;92.30;;;;;;5031166;28;20052;-69
2023/09/04 02:54:29;;;;;;;13.65;6.35;;;23.60;91.70;;;;;;5031078;28;20045;-69
2023/09/04 02:57:32;;;;;;;10.95;5.75;;;23.60;91.20;;;;;;5031305;28;20045;-69
2023/09/04 03:00:40;;;;;;;12.73;5.43;;;22.50;90.10;;;;;;5031094;28;20053;-69
2023/09/04 03:03:46;;;;;;;8.10;4.43;;;23.70;90.40;;;;;;5031069;28;20049;-68
2023/09/04 03:06:49;;;;;;;8.60;5.63;;;24.00;89.10;;;;;;5030759;28;20053;-68
2023/09/04 03:09:55;;;;;;;8.23;4.60;;;23.80;89.40;;;;;;5030263;28;20064;-69
2023/09/04 03:12:59;;;;;;;10.38;5.10;;;23.90;88.00;;;;;;5030328;28;20401;-68
2023/09/04 03:16:05;;;;;;;7.90;4.63;;;23.90;88.40;;;;;;5029822;28;20550;-69
2023/09/04 03:19:09;;;;;;;8.10;4.30;;;24.10;88.30;;;;;;5030797;28;20509;-69
2023/09/04 03:22:14;;;;;;;5.28;3.83;;;24.10;87.20;;;;;;5030066;28;20048;-69
2023/09/04 03:25:18;;;;;;;7.63;4.18;;;24.10;86.70;;;;;;5031068;28;20049;-69
2023/09/04 03:28:22;;;;;;;6.32;3.92;;;24.10;86.70;;;;;;5030171;28;20048;-69
2023/09/04 03:31:27;;;;;;;7.50;3.88;;;24.10;86.40;;;;;;5030173;28;20048;-68
2023/09/04 03:34:37;;;;;;;6.20;3.50;;;24.10;86.40;;;;;;5018569;28;20044;-68
2023/09/04 03:37:41;;;;;;;5.93;3.97;;;24.20;86.20;;;;;;5030047;28;20045;-68
2023/09/04 03:40:46;;;;;;;6.78;3.33;;;24.20;86.10;;;;;;5032600;28;20065;-68
2023/09/04 03:43:50;;;;;;;6.63;3.70;;;24.10;85.80;;;;;;5034729;28;20045;-69
2023/09/04 03:46:56;;;;;;;7.82;3.95;;;24.10;85.80;;;;;;5033562;28;20052;-69
2023/09/04 03:50:00;;;;;;;8.48;4.07;;;24.10;85.70;;;;;;5033754;28;20049;-68
2023/09/04 03:53:03;;;;;;;7.18;2.83;;;24.10;86.30;;;;;;5034607;28;20237;-69
2023/09/04 03:56:09;;;;;;;5.25;3.13;;;24.20;85.40;;;;;;5033608;28;20045;-69
2023/09/04 03:59:13;;;;;;;6.05;3.40;;;24.10;86.10;;;;;;5034072;28;20048;-69
2023/09/04 04:02:17;;;;;;;5.60;2.70;;;24.10;85.10;;;;;;5034459;28;20048;-69
2023/09/04 04:05:21;;;;;;;4.78;2.10;;;24.20;84.80;;;;;;5034278;28;20049;-69
2023/09/04 04:08:24;;;;;;;6.78;2.78;;;24.30;83.50;;;;;;5033907;28;20508;-69
2023/09/04 04:11:28;;;;;;;5.28;2.53;;;24.40;83.50;;;;;;5033922;28;20044;-69
2023/09/04 04:14:32;;;;;;;2.50;2.00;;;24.40;83.30;;;;;;5033203;28;20045;-69
2023/09/04 04:17:38;;;;;;;5.82;2.40;;;24.40;83.40;;;;;;5033704;28;20045;-69
2023/09/04 04:20:41;;;;;;;9.73;2.42;;;24.50;83.50;;;;;;5033808;28;20056;-68
2023/09/04 04:23:45;;;;;;;5.45;3.00;;;24.50;84.20;;;;;;5033037;28;20516;-69
2023/09/04 04:26:49;;;;;;;5.47;3.10;;;24.50;84.30;;;;;;5033729;28;20060;-69
2023/09/04 04:29:55;;;;;;;6.45;3.28;;;24.50;84.40;;;;;;5033005;28;20037;-69
2023/09/04 04:33:02;;;;;;;8.35;3.20;;;24.40;83.40;;;;;;5032622;28;20052;-68
2023/09/04 04:36:07;;;;;;;5.72;2.90;;;24.40;83.70;;;;;;5032995;28;20508;-68
2023/09/04 04:39:11;;;;;;;7.28;2.75;;;24.50;83.50;;;;;;5033706;28;20523;-69
2023/09/04 04:42:15;;;;;;;10.40;2.92;;;24.30;83.20;;;;;;5033727;28;20052;-69
2023/09/04 04:45:20;;;;;;;8.70;2.83;;;24.40;83.80;;;;;;5032773;28;20040;-70
2023/09/04 04:48:24;;;;;;;7.25;3.10;;;24.50;83.40;;;;;;5032442;28;20052;-69
2023/09/04 04:51:27;;;;;;;10.60;3.75;;;24.40;84.00;;;;;;5031683;28;20048;-69
2023/09/04 04:54:31;;;;;;;4.38;3.08;;;24.40;83.70;;;;;;5032679;28;20053;-68
2023/09/04 04:57:35;;;;;;;8.40;3.33;;;24.40;83.30;;;;;;5032517;28;20045;-68
2023/09/04 05:00:39;;;;;;;7.28;3.63;;;24.40;82.90;;;;;;5033148;28;20044;-71
2023/09/04 05:03:43;;;;;;;11.93;3.58;;;24.40;83.40;;;;;;5032093;28;20500;-69
2023/09/04 05:06:48;;;;;;;16.95;4.32;;;24.50;83.80;;;;;;5032046;28;20049;-69
2023/09/04 05:09:53;;;;;;;9.90;4.05;;;24.50;84.90;;;;;;5032606;28;20044;-70
2023/09/04 05:12:58;;;;;;;13.02;4.57;;;24.50;84.10;;;;;;5032116;28;20604;-70
2023/09/04 05:16:05;;;;;;;17.65;3.78;;;24.60;83.60;;;;;;5032273;28;20056;-69
2023/09/04 05:19:12;;;;;;;19.60;4.30;;;25.30;84.70;;;;;;5032233;28;20041;-70
2023/09/04 05:22:16;;;;;;;25.52;6.28;;;24.80;85.00;;;;;;5032696;28;20505;-69
2023/09/04 05:25:20;;;;;;;29.35;5.22;;;25.30;83.40;;;;;;5031449;28;20048;-67
2023/09/04 05:28:24;;;;;;;25.17;5.88;;;25.70;82.50;;;;;;5030788;28;20052;-67
2023/09/04 05:31:28;;;;;;;23.35;5.78;;;25.80;82.20;;;;;;5032044;28;20041;-68
2023/09/04 05:34:34;;;;;;;8.10;2.50;;;26.00;81.40;;;;;;5032446;28;20057;-68
2023/09/04 05:37:38;;;;;;;14.95;3.30;;;26.30;79.00;;;;;;5032737;28;20061;-67
2023/09/04 05:40:44;;;;;;;8.43;3.55;;;26.60;78.70;;;;;;5032233;28;20503;-70
2023/09/04 05:43:47;;;;;;;7.68;2.42;;;26.90;78.30;;;;;;5031576;28;20500;-68
2023/09/04 05:46:51;;;;;;;11.23;2.30;;;27.60;77.20;;;;;;5031928;28;20053;-69
2023/09/04 05:49:55;;;;;;;13.85;2.50;;;28.60;74.60;;;;;;5031945;28;20037;-68
2023/09/04 05:52:59;;;;;;;28.48;2.70;;;29.50;72.60;;;;;;5032157;28;20056;-66
2023/09/04 05:56:11;;;;;;;10.80;2.75;;;29.40;72.20;;;;;;5031290;28;20393;-67
2023/09/04 05:59:15;;;;;;;9.93;2.20;;;28.90;72.90;;;;;;5031691;28;20184;-68
2023/09/04 06:02:19;;;;;;;7.28;2.55;;;28.90;73.70;;;;;;5030893;28;20039;-68
2023/09/04 06:05:24;;;;;;;10.68;2.67;;;28.70;74.10;;;;;;5031018;28;20056;-68
2023/09/04 06:08:30;;;;;;;24.30;3.35;;;28.40;74.30;;;;;;5031732;28;20064;-67
2023/09/04 06:11:34;;;;;;;12.77;2.53;;;28.40;75.40;;;;;;5031781;28;20052;-70
2023/09/04 06:14:38;;;;;;;11.75;2.40;;;28.10;75.50;;;;;;5031379;28;20068;-69
2023/09/04 06:17:42;;;;;;;9.48;2.13;;;28.00;75.70;;;;;;5030561;28;20032;-67
2023/09/04 06:20:47;;;;;;;7.80;2.10;;;28.00;76.00;;;;;;5031080;28;20047;-68
2023/09/04 06:23:50;;;;;;;9.10;2.55;;;27.90;76.30;;;;;;5031699;28;20045;-67
2023/09/04 06:26:54;;;;;;;6.55;2.60;;;28.00;76.50;;;;;;5031292;28;20052;-66
2023/09/04 06:29:59;;;;;;;12.93;3.10;;;27.90;75.70;;;;;;5031313;28;20044;-66
2023/09/04 06:33:04;;;;;;;5.60;2.47;;;27.90;76.40;;;;;;5030899;28;20049;-69
2023/09/04 06:36:07;;;;;;;15.20;2.53;;;28.10;75.50;;;;;;5030359;28;20401;-69
2023/09/04 06:39:11;;;;;;;11.55;2.78;;;28.50;75.60;;;;;;5030785;28;20049;-67
2023/09/04 06:42:15;;;;;;;8.05;2.65;;;28.60;75.10;;;;;;5030723;28;20520;-67
2023/09/04 06:45:20;;;;;;;5.65;2.15;;;28.80;74.40;;;;;;5030728;28;20546;-69
2023/09/04 06:48:27;;;;;;;7.35;2.47;;;28.90;73.90;;;;;;5030055;28;20147;-68
2023/09/04 06:51:31;;;;;;;11.23;2.05;;;29.00;73.40;;;;;;5030828;28;20036;-69
2023/09/04 06:54:35;;;;;;;10.45;2.25;;;29.00;73.00;;;;;;5030973;28;20068;-68
2023/09/04 06:57:39;;;;;;;14.27;2.22;;;29.00;72.40;;;;;;5030671;28;20040;-68
2023/09/04 07:00:43;;;;;;;11.10;2.47;;;29.10;72.50;;;;;;5030727;28;20041;-66
2023/09/04 07:03:47;;;;;;;9.88;2.63;;;29.10;71.40;;;;;;5029833;28;20040;-66
2023/09/04 07:06:51;;;;;;;7.22;2.17;;;28.90;72.20;;;;;;5029853;28;20523;-67
2023/09/04 07:09:56;;;;;;;16.02;2.38;;;29.00;72.80;;;;;;5030625;28;20052;-70
2023/09/04 07:13:01;;;;;;;9.43;2.38;;;28.90;71.00;;;;;;5030603;28;20480;-68
2023/09/04 07:16:04;;;;;;;10.00;2.58;;;29.00;68.80;;;;;;5033428;28;20052;-68
2023/09/04 07:19:08;;;;;;;10.93;2.42;;;29.30;70.10;;;;;;5034615;28;20060;-67
2023/09/04 07:22:12;;;;;;;5.63;1.90;;;29.30;68.30;;;;;;5034773;28;20064;-67
2023/09/04 07:25:16;;;;;;;10.15;2.28;;;29.10;66.70;;;;;;5034089;28;20040;-67
2023/09/04 07:28:20;;;;;;;9.93;2.28;;;29.00;66.70;;;;;;5033579;28;20057;-69
2023/09/04 07:31:28;;;;;;;12.95;2.97;;;29.20;65.90;;;;;;5032541;28;20527;-69
2023/09/04 07:34:32;;;;;;;12.55;2.65;;;29.20;66.00;;;;;;5032773;28;20057;-69
2023/09/04 07:37:36;;;;;;;14.40;2.60;;;28.90;66.50;;;;;;5032235;28;20049;-71
2023/09/04 07:40:40;;;;;;;20.77;2.70;;;28.80;66.40;;;;;;5032951;28;20405;-70
2023/09/04 07:43:44;;;;;;;16.63;3.08;;;28.60;65.50;;;;;;5033095;28;20052;-69
2023/09/04 07:46:48;;;;;;;12.40;2.47;;;28.50;65.70;;;;;;5034034;28;20049;-69
2023/09/04 07:49:53;;;;;;;22.20;2.78;;;28.50;66.00;;;;;;5034222;28;20053;-68
2023/09/04 07:52:59;;;;;;;5.35;2.45;;;28.70;65.70;;;;;;5033508;28;20040;-68
2023/09/04 07:56:03;;;;;;;16.65;2.80;;;29.10;65.80;;;;;;5033508;28;20056;-68
2023/09/04 07:59:07;;;;;;;8.68;2.85;;;29.20;64.10;;;;;;5033795;28;20035;-68
2023/09/04 08:02:11;;;;;;;9.80;2.05;;;28.80;64.40;;;;;;5034220;28;20048;-69
2023/09/04 08:05:15;;;;;;;16.15;2.40;;;28.90;64.90;;;;;;5034277;28;20044;-68
2023/09/04 08:08:19;;;;;;;7.45;2.30;;;29.00;64.20;;;;;;5033861;28;20401;-69
2023/09/04 08:11:23;;;;;;;15.43;2.88;;;29.30;64.60;;;;;;5033818;28;20393;-68
2023/09/04 08:14:33;;;;;;;10.38;2.40;;;29.50;63.30;;;;;;5033745;28;20449;-69
2023/09/04 08:17:40;;;;;;;9.10;2.07;;;29.70;62.90;;;;;;5033943;28;20040;-68
2023/09/04 08:20:44;;;;;;;14.60;2.88;;;29.60;61.90;;;;;;5033808;28;20048;-66
2023/09/04 08:23:48;;;;;;;11.57;2.45;;;29.50;62.00;;;;;;5033945;28;20045;-70
2023/09/04 08:26:52;;;;;;;7.22;2.40;;;29.60;61.70;;;;;;5033414;28;20048;-68
2023/09/04 08:29:56;;;;;;;12.30;2.72;;;29.50;61.50;;;;;;5032594;28;20037;-68
2023/09/04 08:33:00;;;;;;;11.10;2.65;;;29.20;62.40;;;;;;5033354;28;20060;-68
2023/09/04 08:36:04;;;;;;;34.38;3.47;;;29.10;64.20;;;;;;5033233;28;20049;-68
2023/09/04 08:39:08;;;;;;;12.45;2.72;;;29.00;65.40;;;;;;5033460;28;20045;-68
2023/09/04 08:42:12;;;;;;;16.25;2.80;;;28.80;65.20;;;;;;5033639;28;20044;-68
2023/09/04 08:45:17;;;;;;;14.57;2.65;;;28.80;65.40;;;;;;5033704;28;20048;-66
2023/09/04 08:48:23;;;;;;;28.00;2.90;;;28.70;64.60;;;;;;5033150;28;20060;-69
2023/09/04 08:51:27;;;;;;;7.50;2.47;;;28.80;64.30;;;;;;5033340;28;20044;-68
2023/09/04 08:54:33;;;;;;;4.40;2.22;;;28.80;64.00;;;;;;5033102;28;20048;-67
2023/09/04 08:57:36;;;;;;;11.52;2.60;;;28.70;63.40;;;;;;5033223;28;20044;-69
2023/09/04 09:00:42;;;;;;;10.88;2.30;;;28.60;63.80;;;;;;5032284;28;20117;-67
2023/09/04 09:03:45;;;;;;;10.18;3.63;;;28.40;64.00;;;;;;5032741;28;20040;-67
2023/09/04 09:06:50;;;;;;;14.55;2.72;;;28.30;64.00;;;;;;5032569;28;20056;-66
2023/09/04 09:09:59;;;;;;;16.65;3.00;;;28.40;64.00;;;;;;5032692;28;20064;-66
2023/09/04 09:13:03;;;;;;;13.65;2.30;;;28.40;64.00;;;;;;5032672;28;20045;-67
2023/09/04 09:16:07;;;;;;;12.25;2.58;;;28.40;63.80;;;;;;5032980;28;20052;-70
2023/09/04 09:19:13;;;;;;;14.95;2.83;;;28.40;62.80;;;;;;5032786;28;20044;-69
2023/09/04 09:22:19;;;;;;;24.17;3.00;;;28.30;62.70;;;;;;5032573;28;20503;-73
2023/09/04 09:25:23;;;;;;;47.78;5.15;;;28.10;62.60;;;;;;5032555;28;20112;-74
2023/09/04 09:28:27;;;;;;;30.73;3.38;;;28.10;62.30;;;;;;5032266;28;20401;-74
2023/09/04 09:31:32;;;;;;;21.48;3.30;;;28.00;62.50;;;;;;5031593;28;20444;-72
2023/09/04 09:34:39;;;;;;;13.85;2.92;;;28.00;62.30;;;;;;5032871;28;20056;-70
2023/09/04 09:37:43;;;;;;;11.55;2.67;;;28.10;63.10;;;;;;5031766;28;20048;-67
2023/09/04 09:40:47;;;;;;;10.25;3.10;;;28.30;63.70;;;;;;5032203;28;20040;-73
2023/09/04 09:43:51;;;;;;;13.82;3.05;;;28.30;62.40;;;;;;5032340;28;20056;-74
2023/09/04 09:46:56;;;;;;;7.30;2.83;;;28.20;63.10;;;;;;5032149;28;20512;-67
2023/09/04 09:50:00;;;;;;;15.30;3.10;;;28.30;62.80;;;;;;5032107;28;20044;-66
2023/09/04 09:53:05;;;;;;;15.55;3.45;;;28.30;62.80;;;;;;5031936;28;20389;-66
2023/09/04 09:56:11;;;;;;;10.50;2.83;;;28.30;62.60;;;;;;5031022;28;20620;-67
2023/09/04 09:59:15;;;;;;;17.27;3.15;;;28.40;62.10;;;;;;5030475;28;20061;-67
2023/09/04 10:02:22;;;;;;;18.58;2.97;;;28.40;62.10;;;;;;5031695;28;20540;-68
2023/09/04 10:05:30;;;;;;;24.90;3.22;;;28.40;61.70;;;;;;5030702;28;20048;-67
2023/09/04 10:08:42;;;;;;;11.75;2.50;;;28.50;61.60;;;;;;5031482;28;20064;-67
2023/09/04 10:11:53;;;;;;;12.35;2.83;;;28.40;61.40;;;;;;5031706;28;20044;-67
2023/09/04 10:14:59;;;;;;;14.82;2.20;;;28.50;61.50;;;;;;5031585;28;20432;-68
2023/09/04 10:18:12;;;;;;;44.88;3.38;;;28.70;61.10;;;;;;5031244;28;20036;-68
2023/09/04 10:21:18;;;;;;;15.57;3.00;;;28.50;60.40;;;;;;5031492;28;20095;-66
2023/09/04 10:24:35;;;;;;;26.88;3.10;;;28.40;60.20;;;;;;5031404;28;20048;-68
2023/09/04 10:27:44;;;;;;;19.10;2.70;;;28.40;60.60;;;;;;5031054;28;20052;-67
2023/09/04 10:30:53;;;;;;;13.73;2.80;;;28.40;60.60;;;;;;5031371;28;20044;-66
2023/09/04 10:34:00;;;;;;;13.18;2.55;;;28.60;60.80;;;;;;5031221;28;20060;-68
2023/09/04 10:37:04;;;;;;;15.88;2.47;;;28.70;60.60;;;;;;5031491;28;20075;-67
2023/09/04 10:40:10;;;;;;;15.23;2.80;;;29.00;60.60;;;;;;5031161;28;20045;-66
2023/09/04 10:43:14;;;;;;;16.40;2.75;;;29.10;60.40;;;;;;5031064;28;20389;-68
2023/09/04 10:46:18;;;;;;;12.98;2.50;;;29.00;60.50;;;;;;5031173;28;20528;-67
2023/09/04 10:49:31;;;;;;;13.20;2.83;;;28.90;60.30;;;;;;5030365;28;20052;-66
2023/09/04 10:52:44;;;;;;;16.05;2.60;;;29.00;60.90;;;;;;5031186;28;20045;-68
2023/09/04 10:56:11;;;;;;;5.10;2.40;;;28.90;60.40;;;;;;5030820;28;20044;-68
2023/09/04 10:59:15;;;;;;;8.77;2.60;;;28.90;60.20;;;;;;5030938;28;20041;-67
2023/09/04 11:02:35;;;;;;;20.10;2.72;;;29.00;60.70;;;;;;5031037;28;20056;-69
2023/09/04 11:06:12;;;;;;;25.38;3.78;;;29.10;60.50;;;;;;5031005;28;20060;-68
2023/09/04 11:09:17;;;;;;;17.77;2.55;;;29.00;60.40;;;;;;5030717;28;20052;-68
2023/09/04 11:12:23;;;;;;;27.50;2.83;;;29.20;60.30;;;;;;5030797;28;20044;-66
2023/09/04 11:15:34;;;;;;;18.98;2.45;;;29.00;59.60;;;;;;5041625;28;20052;-68
2023/09/04 11:18:41;;;;;;;10.15;2.30;;;28.90;60.40;;;;;;5030606;28;20060;-67
2023/09/04 11:21:46;;;;;;;27.17;3.28;;;29.00;60.40;;;;;;5030931;28;20048;-66
2023/09/04 11:24:53;;;;;;;14.80;2.58;;;29.00;60.10;;;;;;5030753;28;20056;-67
2023/09/04 11:27:57;;;;;;;11.77;2.80;;;28.90;60.00;;;;;;5030930;28;20064;-68
2023/09/04 11:31:05;;;;;;;10.13;2.33;;;28.80;60.00;;;;;;5029934;28;20045;-68
2023/09/04 11:34:09;;;;;;;15.70;2.83;;;29.00;60.20;;;;;;5029460;28;20544;-67
2023/09/04 11:37:13;;;;;;;6.10;1.90;;;29.20;59.90;;;;;;5030200;28;20044;-69
2023/09/04 11:40:18;;;;;;;13.43;2.75;;;29.20;60.10;;;;;;5028951;28;20728;-68
2023/09/04 11:43:24;;;;;;;4.32;2.47;;;29.20;60.00;;;;;;5029165;28;20040;-68
2023/09/04 11:46:28;;;;;;;15.73;2.67;;;29.20;59.70;;;;;;5029915;28;20465;-67
2023/09/04 11:49:34;;;;;;;13.07;2.60;;;29.20;59.90;;;;;;5029092;28;20515;-67
2023/09/04 11:52:39;;;;;;;10.02;2.40;;;29.20;59.20;;;;;;5030570;28;20045;-67
2023/09/04 11:55:43;;;;;;;11.82;2.65;;;29.10;60.30;;;;;;5030808;28;20056;-66
2023/09/04 11:58:47;;;;;;;8.77;2.30;;;29.10;60.10;;;;;;5030360;28;20401;-67
2023/09/04 12:01:51;;;;;;;6.32;2.30;;;29.10;60.30;;;;;;5031428;28;20052;-67
2023/09/04 12:04:57;;;;;;;7.13;2.53;;;29.20;60.10;;;;;;5034141;28;20052;-67
2023/09/04 12:08:03;;;;;;;9.60;2.53;;;29.20;60.00;;;;;;5033809;28;20056;-68
2023/09/04 12:11:07;;;;;;;9.27;2.22;;;29.40;59.90;;;;;;5034245;28;20037;-67
2023/09/04 12:14:11;;;;;;;10.02;2.50;;;29.60;59.50;;;;;;5033845;28;20053;-67
2023/09/04 12:17:15;;;;;;;4.60;2.00;;;29.50;58.80;;;;;;5034165;28;20385;-66
2023/09/04 12:20:19;;;;;;;9.82;2.47;;;29.50;58.50;;;;;;5033546;28;20044;-66
2023/09/04 12:23:39;;;;;;;5.85;1.88;;;29.40;58.90;;;;;;5034129;28;20056;-67
2023/09/04 12:26:46;;;;;;;10.88;2.20;;;29.30;59.60;;;;;;5033932;28;20048;-68
2023/09/04 12:29:50;;;;;;;10.30;2.25;;;29.30;59.20;;;;;;5033813;28;20056;-66
2023/09/04 12:32:57;;;;;;;12.02;2.25;;;29.20;58.90;;;;;;5033480;28;20524;-67
2023/09/04 12:36:02;;;;;;;9.27;2.53;;;29.00;58.70;;;;;;5033796;28;20049;-66
2023/09/04 12:39:06;;;;;;;14.07;2.40;;;29.00;58.50;;;;;;5033519;28;20052;-67
2023/09/04 12:42:10;;;;;;;12.15;2.70;;;28.90;58.90;;;;;;5033554;28;20044;-68
2023/09/04 12:45:14;;;;;;;12.88;2.35;;;29.50;58.40;;;;;;5033566;28;20057;-67
2023/09/04 12:48:19;;;;;;;22.42;2.88;;;30.70;57.00;;;;;;5033281;28;20056;-65
2023/09/04 12:51:25;;;;;;;14.85;2.50;;;31.30;56.50;;;;;;5033485;28;20048;-66
2023/09/04 12:54:33;;;;;;;10.00;2.72;;;31.40;56.10;;;;;;5033178;28;20056;-66
2023/09/04 12:57:37;;;;;;;13.77;2.40;;;32.10;56.40;;;;;;5032800;28;20064;-67
2023/09/04 13:00:45;;;;;;;14.98;2.72;;;31.80;55.20;;;;;;5033442;28;20052;-67
2023/09/04 13:03:49;;;;;;;8.75;2.80;;;32.20;53.90;;;;;;5033236;28;20044;-66
2023/09/04 13:06:53;;;;;;;13.70;2.70;;;31.60;54.40;;;;;;5033188;28;20044;-66
2023/09/04 13:09:57;;;;;;;7.75;2.30;;;31.70;54.90;;;;;;5032237;28;20053;-68
2023/09/04 13:13:01;;;;;;;13.63;2.90;;;32.00;55.00;;;;;;5032232;28;20056;-67
2023/09/04 13:16:05;;;;;;;13.70;2.50;;;32.30;54.40;;;;;;5033177;28;20156;-68
2023/09/04 13:19:09;;;;;;;9.73;2.22;;;32.30;53.80;;;;;;5033705;28;20064;-66
2023/09/04 13:22:13;;;;;;;21.50;3.58;;;32.20;54.00;;;;;;5032136;28;20117;-66
2023/09/04 13:25:17;;;;;;;21.45;2.88;;;31.00;54.80;;;;;;5032750;28;20044;-67
2023/09/04 13:28:21;;;;;;;16.00;2.42;;;30.40;54.30;;;;;;5032508;28;20047;-67
2023/09/04 13:31:25;;;;;;;17.27;2.65;;;29.90;55.00;;;;;;5032755;28;20385;-67
2023/09/04 13:34:29;;;;;;;13.32;2.50;;;29.40;55.40;;;;;;5032805;28;20125;-66
2023/09/04 13:37:36;;;;;;;8.30;2.53;;;29.30;55.70;;;;;;5032413;28;20045;-66
2023/09/04 13:40:40;;;;;;;6.50;2.13;;;29.20;55.90;;;;;;5032860;28;20048;-67
2023/09/04 13:43:48;;;;;;;12.20;2.50;;;29.20;55.70;;;;;;5032590;28;20052;-67
2023/09/04 13:46:52;;;;;;;5.38;2.45;;;29.20;55.80;;;;;;5032255;28;20040;-67
2023/09/04 13:49:57;;;;;;;5.47;2.13;;;29.20;52.60;;;;;;5019874;28;20065;-70
2023/09/04 13:53:01;;;;;;;19.00;2.75;;;29.10;53.20;;;;;;5031999;28;20076;-68
2023/09/04 13:56:05;;;;;;;16.98;2.72;;;29.10;52.70;;;;;;5032172;28;20405;-67
2023/09/04 13:59:09;;;;;;;15.63;2.88;;;29.00;53.20;;;;;;5032226;28;20469;-68
2023/09/04 14:02:13;;;;;;;12.38;2.90;;;28.90;53.00;;;;;;5032143;28;20663;-72
2023/09/04 14:05:17;;;;;;;11.98;2.30;;;28.90;52.90;;;;;;5030925;28;20044;-66
2023/09/04 14:08:21;;;;;;;11.90;2.10;;;28.90;52.60;;;;;;5031674;28;20117;-69
2023/09/04 14:11:25;;;;;;;5.35;2.70;;;28.80;53.20;;;;;;5031921;28;20515;-68
2023/09/04 14:14:30;;;;;;;17.13;3.42;;;28.80;53.40;;;;;;5030736;28;20048;-68
2023/09/04 14:17:34;;;;;;;7.78;2.22;;;28.80;53.80;;;;;;5031770;28;20389;-68
2023/09/04 14:20:39;;;;;;;15.30;2.42;;;28.70;53.60;;;;;;5031661;28;20044;-68
2023/09/04 14:23:44;;;;;;;21.33;2.67;;;28.60;53.70;;;;;;5031170;28;20056;-70
2023/09/04 14:26:49;;;;;;;23.52;2.70;;;28.50;53.90;;;;;;5030718;28;20112;-68
2023/09/04 14:29:56;;;;;;;22.42;3.75;;;28.30;54.40;;;;;;5031458;28;20052;-67
2023/09/04 14:33:01;;;;;;;21.58;3.30;;;28.10;54.80;;;;;;5030947;28;20048;-68
2023/09/04 14:36:05;;;;;;;15.27;3.60;;;27.90;55.20;;;;;;5031534;28;20045;-67
2023/09/04 14:39:09;;;;;;;54.65;4.20;;;27.90;55.80;;;;;;5031317;28;20045;-68
2023/09/04 14:42:12;;;;;;;28.10;3.47;;;27.90;55.20;;;;;;5031158;28;20389;-67
2023/09/04 14:45:17;;;;;;;26.45;3.50;;;27.70;55.60;;;;;;5031032;28;20496;-67
2023/09/04 14:48:24;;;;;;;13.80;3.00;;;28.10;56.00;;;;;;5030930;28;20048;-67
2023/09/04 14:51:28;;;;;;;13.05;3.20;;;28.50;54.60;;;;;;5030989;28;20036;-66
2023/09/04 14:54:32;;;;;;;32.53;3.63;;;29.20;53.00;;;;;;5030750;28;20530;-65
2023/09/04 14:57:36;;;;;;;40.53;4.13;;;29.40;52.50;;;;;;5030949;28;20045;-66
2023/09/04 15:00:44;;;;;;;35.88;4.55;;;29.60;52.20;;;;;;5031228;28;20056;-67
2023/09/04 15:03:49;;;;;;;13.45;3.15;;;29.40;52.90;;;;;;5030735;28;20067;-66
2023/09/04 15:06:53;;;;;;;14.60;3.25;;;29.60;53.20;;;;;;5030955;28;20048;-67
2023/09/04 15:09:57;;;;;;;14.35;3.08;;;29.70;52.10;;;;;;5030535;28;20393;-66
2023/09/04 15:13:02;;;;;;;8.27;2.88;;;30.40;52.60;;;;;;5030421;28;20040;-66
2023/09/04 15:16:06;;;;;;;14.88;3.17;;;30.70;52.00;;;;;;5029925;28;20413;-66
2023/09/04 15:19:10;;;;;;;12.45;3.13;;;30.80;51.70;;;;;;5030492;28;20044;-69
2023/09/04 15:22:14;;;;;;;13.65;2.95;;;30.30;51.50;;;;;;5029458;28;20076;-68
2023/09/04 15:25:18;;;;;;;11.63;2.80;;;30.00;52.00;;;;;;5028784;28;20064;-68
2023/09/04 15:28:25;;;;;;;15.18;3.33;;;30.10;51.90;;;;;;5029764;28;20052;-68
2023/09/04 15:31:32;;;;;;;12.77;3.38;;;30.50;51.80;;;;;;5030035;28;20048;-70
2023/09/04 15:34:37;;;;;;;8.50;2.80;;;30.70;51.90;;;;;;5029906;28;20374;-68
2023/09/04 15:37:42;;;;;;;19.40;3.08;;;30.00;51.40;;;;;;5033866;28;20048;-68
2023/09/04 15:40:46;;;;;;;7.18;2.38;;;29.60;52.20;;;;;;5034416;28;20044;-68
2023/09/04 15:43:50;;;;;;;11.05;3.05;;;30.40;52.40;;;;;;5034329;28;20044;-69
2023/09/04 15:46:55;;;;;;;14.30;2.97;;;30.50;52.40;;;;;;5033356;28;20048;-68
2023/09/04 15:49:58;;;;;;;13.90;2.88;;;30.80;52.50;;;;;;5034119;28;20049;-68
2023/09/04 15:53:03;;;;;;;11.70;2.95;;;31.10;52.30;;;;;;5034326;28;20041;-67